Time;durP1;ratioP1;P1;durP2;ratioP2;P2;SDS_P1;SDS_P2;PMS_P1;PMS_P2;Temp;Humidity;BMP_temperature;BMP_pressure;BME280_temperature;BME280_humidity;BME280_pressure;Samples;Min_cycle;Max_cycle;Signal;HPM_P1;HPM_P2
2022/04/16 00:00:56;;;;;;;21.30;11.45;;;8.70;99.90;;;;;;4975949;28;20372;-90
2022/04/16 00:03:22;;;;;;;22.52;11.02;;;8.70;99.90;;;;;;4992837;28;20554;-90
2022/04/16 00:05:51;;;;;;;20.63;11.40;;;8.60;99.90;;;;;;4992056;28;20145;-90
2022/04/16 00:08:18;;;;;;;20.92;11.75;;;8.60;99.90;;;;;;4991867;28;20038;-90
2022/04/16 00:10:43;;;;;;;19.58;11.73;;;8.60;99.90;;;;;;4975884;28;20057;-90
2022/04/16 00:13:09;;;;;;;23.50;12.48;;;8.60;99.90;;;;;;4976248;28;20038;-90
2022/04/16 00:15:34;;;;;;;18.40;11.38;;;8.60;99.90;;;;;;4975980;28;20038;-90
2022/04/16 00:18:00;;;;;;;21.58;12.70;;;8.60;99.90;;;;;;4975778;28;20034;-90
2022/04/16 00:20:27;;;;;;;19.58;11.10;;;8.50;99.90;;;;;;4975746;28;20415;-90
2022/04/16 00:22:53;;;;;;;18.35;12.32;;;8.50;99.90;;;;;;4992640;28;20093;-90
2022/04/16 00:25:19;;;;;;;22.30;12.35;;;8.50;99.90;;;;;;4975697;28;20038;-90
2022/04/16 00:27:46;;;;;;;21.80;12.63;;;8.50;99.90;;;;;;4975386;28;20542;-90
2022/04/16 00:30:12;;;;;;;19.83;12.38;;;8.50;99.90;;;;;;4990903;28;20042;-90
2022/04/16 00:32:40;;;;;;;20.17;12.15;;;8.50;99.90;;;;;;4991838;28;20073;-90
2022/04/16 00:35:07;;;;;;;18.05;12.30;;;8.40;99.90;;;;;;4991584;28;20057;-90
2022/04/16 00:37:34;;;;;;;19.05;12.85;;;8.40;99.90;;;;;;4991738;28;20046;-90
2022/04/16 00:39:59;;;;;;;20.88;11.68;;;8.40;99.90;;;;;;4993483;28;20034;-90
2022/04/16 00:42:25;;;;;;;19.08;12.40;;;8.40;99.90;;;;;;5002531;28;20048;-90
2022/04/16 00:44:50;;;;;;;23.77;13.45;;;8.40;99.90;;;;;;4993594;28;20141;-89
2022/04/16 00:47:16;;;;;;;19.45;12.85;;;8.40;99.90;;;;;;4993173;28;20042;-90
2022/04/16 00:49:42;;;;;;;19.58;13.38;;;8.40;99.90;;;;;;5001301;28;20034;-90
2022/04/16 00:52:08;;;;;;;19.35;12.23;;;8.40;99.90;;;;;;4992534;28;20044;-90
2022/04/16 00:54:34;;;;;;;19.50;12.23;;;8.30;99.90;;;;;;4976829;28;20060;-91
2022/04/16 00:56:59;;;;;;;19.42;13.25;;;8.30;99.90;;;;;;4992159;28;20483;-90
2022/04/16 00:59:25;;;;;;;22.98;12.77;;;8.30;99.90;;;;;;4991823;28;20393;-90
2022/04/16 01:01:51;;;;;;;19.20;12.48;;;8.30;99.90;;;;;;4991374;28;20546;-90
2022/04/16 01:04:16;;;;;;;20.13;12.60;;;8.30;99.90;;;;;;4991719;28;20035;-90
2022/04/16 01:06:48;;;;;;;20.17;12.98;;;8.20;99.90;;;;;;4991538;28;20038;-90
2022/04/16 01:09:14;;;;;;;20.95;13.63;;;8.20;99.90;;;;;;4975165;28;20117;-90
2022/04/16 01:11:39;;;;;;;22.75;13.32;;;8.20;99.90;;;;;;4990669;28;20042;-90
2022/04/16 01:14:05;;;;;;;20.52;13.10;;;8.30;99.90;;;;;;4991243;28;20046;-90
2022/04/16 01:16:33;;;;;;;22.60;13.82;;;8.30;99.90;;;;;;4975040;28;20031;-90
2022/04/16 01:18:59;;;;;;;20.27;13.27;;;8.30;99.90;;;;;;4990625;28;20043;-89
2022/04/16 01:21:25;;;;;;;19.67;12.48;;;8.30;99.90;;;;;;4974561;28;20038;-90
2022/04/16 01:23:51;;;;;;;23.25;13.73;;;8.30;99.90;;;;;;4990873;28;20042;-90
2022/04/16 01:26:16;;;;;;;21.27;13.70;;;8.30;99.90;;;;;;4974624;28;20117;-89
2022/04/16 01:28:43;;;;;;;22.73;13.25;;;8.30;99.90;;;;;;4990962;28;20173;-90
2022/04/16 01:31:09;;;;;;;25.17;13.93;;;8.30;99.90;;;;;;4991067;28;20111;-89
2022/04/16 01:33:34;;;;;;;20.10;13.45;;;8.30;99.90;;;;;;4974750;28;20571;-90
2022/04/16 01:36:00;;;;;;;22.33;14.35;;;8.30;99.90;;;;;;4991011;28;20042;-90
2022/04/16 01:38:25;;;;;;;22.80;14.07;;;8.30;99.90;;;;;;4974778;28;20073;-90
2022/04/16 01:40:58;;;;;;;23.30;14.65;;;8.30;99.90;;;;;;4990315;28;20423;-90
2022/04/16 01:43:24;;;;;;;21.33;13.60;;;8.30;99.90;;;;;;4975284;28;20056;-90
2022/04/16 01:45:50;;;;;;;21.52;13.80;;;8.30;99.90;;;;;;4990475;28;20043;-89
2022/04/16 01:48:17;;;;;;;22.27;14.57;;;8.30;99.90;;;;;;4991117;28;20460;-90
2022/04/16 01:50:43;;;;;;;22.90;13.88;;;8.30;99.90;;;;;;4990421;28;20084;-90
2022/04/16 01:53:08;;;;;;;23.42;16.08;;;8.30;99.90;;;;;;4990898;28;20053;-90
2022/04/16 01:55:34;;;;;;;24.60;15.73;;;8.30;99.90;;;;;;4990693;28;20034;-89
2022/04/16 01:58:00;;;;;;;23.35;15.57;;;8.30;99.90;;;;;;4994908;28;20045;-90
2022/04/16 02:00:26;;;;;;;25.95;16.55;;;8.30;99.90;;;;;;4977611;28;20125;-90
2022/04/16 02:02:52;;;;;;;26.38;15.80;;;8.30;99.90;;;;;;4994870;28;20038;-90
2022/04/16 02:05:17;;;;;;;24.27;16.55;;;8.30;99.90;;;;;;4993575;28;20038;-90
2022/04/16 02:07:43;;;;;;;25.73;16.65;;;8.30;99.90;;;;;;4978256;28;20514;-90
2022/04/16 02:10:09;;;;;;;24.02;15.38;;;8.30;99.90;;;;;;4978157;28;20042;-90
2022/04/16 02:12:38;;;;;;;23.20;15.60;;;8.30;99.90;;;;;;4994374;28;20049;-90
2022/04/16 02:15:07;;;;;;;26.63;17.88;;;8.30;99.90;;;;;;4978274;28;20125;-90
2022/04/16 02:17:34;;;;;;;27.05;17.65;;;8.40;99.90;;;;;;4994251;28;20601;-90
2022/04/16 02:20:00;;;;;;;27.92;16.23;;;8.30;99.90;;;;;;4993904;28;20064;-90
2022/04/16 02:22:25;;;;;;;27.25;17.77;;;8.40;99.90;;;;;;4977752;28;20492;-90
2022/04/16 02:24:51;;;;;;;25.27;17.17;;;8.30;99.90;;;;;;4994486;28;20121;-90
2022/04/16 02:27:17;;;;;;;31.63;17.90;;;8.30;99.90;;;;;;4994273;28;20049;-90
2022/04/16 02:29:43;;;;;;;25.95;17.08;;;8.30;99.90;;;;;;4993856;28;20042;-90
2022/04/16 02:32:09;;;;;;;25.33;15.88;;;8.30;99.90;;;;;;4976048;28;20058;-90
2022/04/16 02:34:35;;;;;;;27.08;16.60;;;8.30;99.90;;;;;;4994468;28;20042;-90
2022/04/16 02:37:00;;;;;;;25.55;17.10;;;8.30;99.90;;;;;;4977486;28;20041;-89
2022/04/16 02:39:26;;;;;;;27.17;17.60;;;8.30;99.90;;;;;;4977929;28;20043;-90
2022/04/16 02:41:51;;;;;;;30.25;19.17;;;8.30;99.90;;;;;;4993349;28;20034;-90
2022/04/16 02:47:08;;;;;;;24.77;16.08;;;8.30;99.90;;;;;;4994024;28;20046;-90
2022/04/16 02:49:37;;;;;;;28.58;17.25;;;8.20;99.90;;;;;;4978054;28;20050;-89
2022/04/16 02:52:03;;;;;;;26.65;17.48;;;8.20;99.90;;;;;;4993274;28;20042;-90
2022/04/16 02:54:28;;;;;;;29.23;17.38;;;8.20;99.90;;;;;;4993468;28;20116;-90
2022/04/16 02:56:55;;;;;;;26.55;17.30;;;8.20;99.90;;;;;;4993789;28;20044;-89
2022/04/16 02:59:21;;;;;;;25.92;16.48;;;8.20;99.90;;;;;;4993860;28;20046;-90
2022/04/16 03:01:46;;;;;;;27.77;18.02;;;8.10;99.90;;;;;;4992787;28;20085;-90
2022/04/16 03:04:12;;;;;;;26.60;17.73;;;8.10;99.90;;;;;;4993566;28;20237;-90
2022/04/16 03:06:38;;;;;;;26.67;17.17;;;8.10;99.90;;;;;;4993376;28;20118;-89
2022/04/16 03:09:03;;;;;;;26.48;17.63;;;8.10;99.90;;;;;;4993477;28;20072;-90
2022/04/16 03:11:29;;;;;;;28.63;17.65;;;8.10;99.90;;;;;;4992747;28;20038;-90
2022/04/16 03:13:54;;;;;;;25.90;17.20;;;8.10;99.90;;;;;;4977321;28;20045;-90
2022/04/16 03:19:04;;;;;;;29.35;18.48;;;8.10;99.90;;;;;;4993389;28;20050;-90
2022/04/16 03:21:29;;;;;;;27.70;17.45;;;8.10;99.90;;;;;;4992373;28;20389;-90
2022/04/16 03:23:55;;;;;;;26.30;17.13;;;8.20;99.90;;;;;;4993520;28;20038;-90
2022/04/16 03:26:21;;;;;;;25.48;17.42;;;8.20;99.90;;;;;;4977089;28;20034;-90
2022/04/16 03:28:46;;;;;;;27.15;17.08;;;8.20;99.90;;;;;;4992796;28;20031;-90
2022/04/16 03:31:12;;;;;;;25.42;17.80;;;8.20;99.90;;;;;;4976664;28;20042;-89
2022/04/16 03:33:38;;;;;;;25.25;17.00;;;8.20;99.90;;;;;;4993078;28;20034;-90
2022/04/16 03:36:04;;;;;;;25.48;17.55;;;8.20;99.90;;;;;;4992835;28;20058;-90
2022/04/16 03:38:29;;;;;;;23.85;16.55;;;8.20;99.90;;;;;;4993056;28;20096;-90
2022/04/16 03:40:55;;;;;;;26.63;17.33;;;8.30;99.90;;;;;;4992196;28;20043;-90
2022/04/16 03:43:21;;;;;;;24.63;15.95;;;8.30;99.90;;;;;;4993339;28;20039;-90
2022/04/16 03:45:47;;;;;;;23.00;16.15;;;8.30;99.90;;;;;;4976522;28;20484;-90
2022/04/16 03:48:13;;;;;;;26.40;17.10;;;8.30;99.90;;;;;;4992581;28;20047;-90
2022/04/16 03:50:40;;;;;;;23.85;15.45;;;8.30;99.90;;;;;;4992188;28;20042;-90
2022/04/16 03:53:06;;;;;;;24.42;16.40;;;8.40;99.90;;;;;;4992582;28;20046;-91
2022/04/16 04:01:04;;;;;;;20.77;13.88;;;8.40;99.90;;;;;;4991771;28;20062;-90
2022/04/16 04:03:30;;;;;;;23.17;14.70;;;8.40;99.90;;;;;;4992406;28;20066;-90
2022/04/16 04:05:58;;;;;;;22.42;14.23;;;8.40;99.90;;;;;;4992236;28;20491;-90
2022/04/16 04:08:25;;;;;;;20.88;15.10;;;8.40;99.90;;;;;;4993073;28;20104;-90
2022/04/16 04:10:51;;;;;;;21.70;14.27;;;8.40;99.90;;;;;;4992090;28;20455;-90
2022/04/16 04:13:17;;;;;;;24.05;15.68;;;8.40;99.90;;;;;;4992308;28;20521;-90
2022/04/16 04:15:43;;;;;;;22.85;13.88;;;8.50;99.90;;;;;;4992528;28;20128;-90
2022/04/16 04:18:09;;;;;;;21.92;14.18;;;8.50;99.90;;;;;;4992585;28;20050;-90
2022/04/16 04:20:35;;;;;;;21.75;13.82;;;8.50;99.90;;;;;;4991225;28;20067;-90
2022/04/16 04:23:02;;;;;;;21.50;13.43;;;8.50;99.90;;;;;;4976624;28;20034;-90
2022/04/16 04:25:27;;;;;;;22.80;13.95;;;8.50;99.90;;;;;;4992042;28;20035;-89
2022/04/16 04:27:53;;;;;;;20.25;13.02;;;8.50;99.90;;;;;;4992018;28;20050;-89
2022/04/16 04:30:19;;;;;;;21.58;13.80;;;8.50;99.90;;;;;;4991924;28;20035;-90
2022/04/16 04:32:44;;;;;;;19.95;12.95;;;8.50;99.90;;;;;;4991352;28;20038;-90
2022/04/16 04:35:11;;;;;;;22.85;13.73;;;8.50;99.90;;;;;;4991911;28;20038;-90
2022/04/16 04:37:36;;;;;;;20.77;13.25;;;8.50;99.90;;;;;;4991819;28;20069;-90
2022/04/16 04:40:03;;;;;;;23.73;13.52;;;8.60;99.90;;;;;;4974729;28;20034;-90
2022/04/16 04:42:33;;;;;;;21.67;13.75;;;8.60;99.90;;;;;;4991566;28;20518;-90
2022/04/16 04:45:14;;;;;;;20.70;13.18;;;8.60;99.90;;;;;;4975652;28;20049;-90
2022/04/16 04:47:40;;;;;;;22.30;13.98;;;8.60;99.90;;;;;;4992055;28;20065;-90
2022/04/16 04:50:07;;;;;;;22.27;14.35;;;8.60;99.90;;;;;;4975233;28;20049;-90
2022/04/16 04:52:35;;;;;;;22.02;14.30;;;8.60;99.90;;;;;;4992172;28;20385;-90
2022/04/16 04:55:01;;;;;;;22.08;13.20;;;8.60;99.90;;;;;;4991694;28;20060;-90
2022/04/16 04:57:27;;;;;;;18.08;11.73;;;8.70;99.90;;;;;;4975857;28;20124;-90
2022/04/16 04:59:53;;;;;;;21.58;13.65;;;8.70;99.90;;;;;;4974769;28;20038;-90
2022/04/16 05:02:19;;;;;;;20.85;12.80;;;8.70;99.90;;;;;;4975534;28;20049;-90
2022/04/16 05:04:44;;;;;;;20.10;13.02;;;8.70;99.90;;;;;;4991312;28;20399;-90
2022/04/16 05:07:10;;;;;;;23.00;12.68;;;8.70;99.90;;;;;;4991838;28;20127;-90
2022/04/16 05:09:39;;;;;;;21.58;14.00;;;8.70;99.90;;;;;;4975496;28;20046;-90
2022/04/16 05:12:05;;;;;;;18.40;11.57;;;8.80;99.90;;;;;;4959767;28;20046;-91
2022/04/16 05:14:32;;;;;;;21.33;13.07;;;8.80;99.90;;;;;;4991651;28;20042;-91
2022/04/16 05:16:58;;;;;;;21.95;13.02;;;8.80;99.90;;;;;;4991796;28;20141;-91
2022/04/16 05:19:24;;;;;;;20.27;12.18;;;8.80;99.90;;;;;;4991797;28;20049;-90
2022/04/16 05:21:49;;;;;;;20.25;12.95;;;8.80;99.90;;;;;;4990265;28;20034;-90
2022/04/16 05:24:15;;;;;;;21.52;12.82;;;8.90;99.90;;;;;;4975593;28;20050;-90
2022/04/16 05:26:40;;;;;;;20.58;13.30;;;8.90;99.90;;;;;;4991293;28;20109;-90
2022/04/16 05:29:07;;;;;;;23.83;14.10;;;8.90;99.90;;;;;;4975213;28;21926;-90
2022/04/16 05:31:33;;;;;;;20.85;14.00;;;9.00;99.90;;;;;;4976821;28;20046;-90
2022/04/16 05:36:44;;;;;;;19.02;12.30;;;9.00;99.90;;;;;;4995129;28;20047;-90
2022/04/16 05:39:09;;;;;;;21.85;12.88;;;9.10;99.90;;;;;;4995238;28;20070;-91
2022/04/16 05:41:38;;;;;;;22.83;13.27;;;9.10;99.90;;;;;;5002105;28;20069;-91
2022/04/16 05:44:05;;;;;;;18.70;12.75;;;9.10;99.90;;;;;;4996687;28;20046;-90
2022/04/16 05:46:31;;;;;;;20.90;13.52;;;9.10;99.90;;;;;;4980580;28;20068;-90
2022/04/16 05:48:57;;;;;;;21.45;13.15;;;9.10;99.90;;;;;;4996087;28;20038;-90
2022/04/16 05:51:24;;;;;;;21.20;13.90;;;9.10;99.90;;;;;;4995313;28;20037;-90
2022/04/16 05:53:51;;;;;;;22.63;12.90;;;9.10;99.90;;;;;;4995358;28;20126;-91
2022/04/16 05:56:18;;;;;;;23.02;13.23;;;9.10;99.90;;;;;;4978985;28;20082;-91
2022/04/16 05:58:44;;;;;;;59.85;24.73;;;9.10;99.90;;;;;;4978775;28;20053;-91
2022/04/16 06:01:10;;;;;;;21.85;13.00;;;9.10;99.90;;;;;;4994428;28;20030;-90
2022/04/16 06:03:39;;;;;;;22.55;12.57;;;9.10;99.90;;;;;;4994936;28;20035;-90
2022/04/16 06:06:05;;;;;;;23.30;13.93;;;9.20;99.90;;;;;;4995106;28;20034;-91
2022/04/16 06:08:31;;;;;;;23.67;13.70;;;9.20;99.90;;;;;;4978516;28;20038;-91
2022/04/16 06:10:56;;;;;;;21.80;13.32;;;9.20;99.90;;;;;;4994253;28;20035;-91
2022/04/16 06:13:22;;;;;;;19.85;12.63;;;9.30;99.90;;;;;;4994761;28;20053;-90
2022/04/16 06:15:47;;;;;;;21.83;12.27;;;9.30;99.90;;;;;;4978510;28;20558;-91
2022/04/16 06:18:13;;;;;;;20.42;13.10;;;9.40;99.90;;;;;;4977874;28;20082;-91
2022/04/16 06:20:39;;;;;;;20.60;12.32;;;9.40;99.90;;;;;;4993832;28;20049;-91
2022/04/16 06:23:05;;;;;;;19.27;12.23;;;9.40;99.90;;;;;;4994540;28;20038;-91
2022/04/16 06:25:31;;;;;;;21.23;12.82;;;9.30;99.90;;;;;;4994650;28;20065;-91
2022/04/16 06:27:57;;;;;;;20.40;11.15;;;9.30;99.90;;;;;;4994293;28;20069;-90
2022/04/16 06:30:23;;;;;;;20.52;11.68;;;9.30;99.90;;;;;;4994128;28;20157;-91
2022/04/16 06:32:48;;;;;;;19.00;11.75;;;9.30;99.90;;;;;;4993940;28;20058;-91
2022/04/16 06:35:14;;;;;;;20.60;12.52;;;9.30;99.90;;;;;;4977917;28;20046;-90
2022/04/16 06:37:41;;;;;;;21.08;11.45;;;9.30;99.90;;;;;;4977704;28;20038;-91
2022/04/16 06:40:08;;;;;;;20.60;11.35;;;9.30;99.90;;;;;;4993604;28;20093;-91
2022/04/16 06:42:35;;;;;;;21.88;12.95;;;9.40;99.90;;;;;;4977309;28;20034;-91
2022/04/16 06:45:01;;;;;;;18.77;12.38;;;9.50;99.90;;;;;;4994149;28;20088;-91
2022/04/16 06:47:29;;;;;;;20.02;12.45;;;9.70;99.90;;;;;;4993508;28;20404;-91
2022/04/16 06:49:55;;;;;;;18.52;11.85;;;9.70;99.90;;;;;;4993566;28;20038;-91
2022/04/16 06:52:21;;;;;;;19.75;12.20;;;9.80;99.90;;;;;;4994417;28;20054;-90
2022/04/16 06:54:47;;;;;;;18.38;11.98;;;9.80;99.90;;;;;;4993463;28;20038;-90
2022/04/16 06:57:12;;;;;;;17.40;11.23;;;9.90;99.90;;;;;;4994112;28;20046;-90
2022/04/16 06:59:38;;;;;;;18.35;11.75;;;10.00;99.90;;;;;;4977106;28;20042;-91
2022/04/16 07:02:08;;;;;;;16.25;10.70;;;10.00;99.90;;;;;;4993229;28;20404;-90
2022/04/16 07:04:34;;;;;;;17.23;10.32;;;10.10;99.90;;;;;;4977565;28;20046;-91
2022/04/16 07:07:00;;;;;;;16.45;9.13;;;10.10;99.90;;;;;;4993048;28;20145;-90
2022/04/16 07:09:26;;;;;;;15.70;9.65;;;10.10;99.90;;;;;;4977354;28;20046;-91
2022/04/16 07:11:51;;;;;;;17.27;8.90;;;10.10;99.90;;;;;;4992832;28;20042;-91
2022/04/16 07:14:17;;;;;;;15.73;9.35;;;10.20;99.90;;;;;;4993703;28;20038;-91
2022/04/16 07:16:43;;;;;;;17.00;9.77;;;10.30;99.90;;;;;;4993381;28;20073;-90
2022/04/16 07:19:09;;;;;;;14.32;8.30;;;10.30;99.90;;;;;;4994582;28;20406;-90
2022/04/16 07:21:35;;;;;;;15.05;8.40;;;10.30;99.90;;;;;;4976136;28;20042;-90
2022/04/16 07:24:01;;;;;;;15.50;8.55;;;10.40;99.90;;;;;;4993089;28;20069;-91
2022/04/16 07:26:26;;;;;;;13.73;8.00;;;10.50;99.90;;;;;;4992858;28;20419;-90
2022/04/16 07:28:52;;;;;;;14.50;8.38;;;10.50;99.90;;;;;;4992541;28;20038;-90
2022/04/16 07:31:17;;;;;;;14.75;8.30;;;10.60;99.90;;;;;;4992089;28;20113;-90
2022/04/16 07:33:43;;;;;;;15.13;8.60;;;10.60;99.90;;;;;;4992485;28;21847;-91
2022/04/16 07:36:09;;;;;;;13.73;8.05;;;10.70;99.90;;;;;;4993225;28;20046;-91
2022/04/16 07:38:34;;;;;;;15.60;8.65;;;10.70;99.90;;;;;;4992891;28;20038;-91
2022/04/16 07:41:02;;;;;;;14.05;7.78;;;10.80;99.90;;;;;;4976332;28;20043;-91
2022/04/16 07:43:28;;;;;;;15.32;8.20;;;10.80;99.90;;;;;;4976667;28;20046;-90
2022/04/16 07:45:54;;;;;;;16.02;7.80;;;10.90;99.90;;;;;;4992917;28;20039;-90
2022/04/16 07:48:19;;;;;;;12.02;7.13;;;11.00;99.90;;;;;;4992666;28;20037;-91
2022/04/16 07:50:45;;;;;;;13.35;7.20;;;11.00;99.90;;;;;;4992678;28;20404;-91
2022/04/16 07:53:11;;;;;;;12.35;7.00;;;11.10;99.90;;;;;;4975936;28;20042;-91
2022/04/16 07:55:37;;;;;;;12.55;7.35;;;11.10;99.90;;;;;;4992393;28;20049;-91
2022/04/16 07:58:03;;;;;;;13.45;7.10;;;11.20;99.90;;;;;;4976439;28;20046;-91
2022/04/16 08:00:28;;;;;;;14.13;6.93;;;11.20;99.90;;;;;;4975864;28;20480;-91
2022/04/16 08:02:54;;;;;;;12.43;6.78;;;11.20;99.90;;;;;;4992764;28;20050;-90
2022/04/16 08:05:19;;;;;;;12.15;6.05;;;11.30;99.90;;;;;;4992467;28;20427;-91
2022/04/16 08:07:46;;;;;;;13.07;6.97;;;11.30;99.90;;;;;;4993059;28;20046;-91
2022/04/16 08:10:12;;;;;;;11.52;5.85;;;11.40;99.90;;;;;;4991924;28;20089;-91
2022/04/16 08:12:38;;;;;;;11.57;5.88;;;11.50;99.90;;;;;;4976553;28;20054;-91
2022/04/16 08:15:06;;;;;;;13.35;7.43;;;11.50;99.90;;;;;;4976143;28;20050;-91
2022/04/16 08:17:32;;;;;;;9.98;5.25;;;11.60;99.90;;;;;;4992580;28;20046;-91
2022/04/16 08:19:57;;;;;;;11.05;5.32;;;11.60;99.90;;;;;;4991929;28;20046;-90
2022/04/16 08:22:23;;;;;;;10.23;5.22;;;11.70;99.90;;;;;;4992249;28;20041;-91
2022/04/16 08:27:35;;;;;;;10.77;5.53;;;11.80;99.90;;;;;;4991765;28;20086;-91
2022/04/16 08:30:00;;;;;;;10.05;5.13;;;11.90;99.90;;;;;;4991997;28;20093;-91
2022/04/16 08:32:26;;;;;;;10.70;5.00;;;11.90;99.90;;;;;;4991628;28;20042;-91
2022/04/16 08:34:52;;;;;;;10.45;4.18;;;12.00;99.90;;;;;;4992146;28;20050;-91
2022/04/16 08:37:18;;;;;;;8.57;4.10;;;12.10;99.90;;;;;;4991656;28;20419;-91
2022/04/16 08:39:44;;;;;;;9.85;4.03;;;12.10;99.90;;;;;;4991906;28;20051;-91
2022/04/16 08:42:11;;;;;;;9.02;3.70;;;12.10;99.90;;;;;;4991630;28;20047;-92
2022/04/16 08:44:39;;;;;;;9.02;3.78;;;12.20;99.80;;;;;;4991863;28;20627;-91
2022/04/16 08:47:05;;;;;;;8.85;3.72;;;12.30;99.00;;;;;;4975994;28;20487;-90
2022/04/16 08:49:33;;;;;;;9.32;3.53;;;12.40;98.30;;;;;;4991971;28;20050;-91
2022/04/16 08:51:59;;;;;;;8.15;3.13;;;12.50;98.30;;;;;;4975483;28;20049;-91
2022/04/16 08:54:25;;;;;;;8.65;4.07;;;12.50;96.60;;;;;;4975429;28;20045;-91
2022/04/16 08:56:51;;;;;;;9.63;3.92;;;12.50;96.50;;;;;;4991807;28;20050;-91
2022/04/16 08:59:16;;;;;;;7.63;3.00;;;12.60;95.40;;;;;;4975585;28;20074;-91
2022/04/16 09:01:42;;;;;;;7.95;3.38;;;12.60;94.40;;;;;;4991218;28;20519;-91
2022/04/16 09:04:19;;;;;;;9.35;3.90;;;12.60;94.70;;;;;;4975565;28;20034;-91
2022/04/16 09:06:58;;;;;;;7.68;3.28;;;12.70;94.50;;;;;;4975575;28;20049;-91
2022/04/16 09:09:24;;;;;;;8.23;3.38;;;12.80;94.80;;;;;;4975468;28;20081;-91
2022/04/16 09:11:50;;;;;;;8.75;3.63;;;12.90;94.30;;;;;;4991379;28;20030;-91
2022/04/16 09:14:16;;;;;;;8.15;2.80;;;13.00;93.50;;;;;;4989524;28;20084;-91
2022/04/16 09:16:42;;;;;;;6.82;2.67;;;13.10;90.70;;;;;;4960213;28;20038;-91
2022/04/16 09:19:21;;;;;;;6.13;2.28;;;13.10;88.20;;;;;;4973789;28;20500;-91
2022/04/16 09:21:47;;;;;;;6.30;2.40;;;13.10;80.30;;;;;;4991775;28;20049;-91
2022/04/16 09:24:12;;;;;;;4.53;1.50;;;13.10;78.80;;;;;;4991054;28;20042;-91
2022/04/16 09:26:39;;;;;;;5.15;1.73;;;13.10;76.20;;;;;;4975568;28;20038;-91
2022/04/16 09:29:16;;;;;;;6.47;1.83;;;13.20;75.90;;;;;;4975241;28;20522;-91
2022/04/16 09:31:45;;;;;;;6.18;1.70;;;13.20;74.00;;;;;;4977403;28;20041;-91
2022/04/16 09:34:19;;;;;;;5.45;1.60;;;13.30;75.40;;;;;;4975059;28;20042;-90
2022/04/16 09:36:45;;;;;;;5.35;1.40;;;13.40;72.80;;;;;;4991170;28;20034;-90
2022/04/16 09:39:11;;;;;;;5.03;1.50;;;13.50;73.50;;;;;;5024440;28;20381;-91
2022/04/16 09:41:40;;;;;;;4.53;1.40;;;13.50;71.00;;;;;;4990710;28;20534;-91
2022/04/16 09:44:27;;;;;;;5.28;1.80;;;13.50;69.00;;;;;;4974752;28;20038;-91
2022/04/16 09:46:55;;;;;;;5.05;1.65;;;13.50;67.60;;;;;;4990096;28;20042;-91
2022/04/16 09:49:21;;;;;;;6.60;2.33;;;13.50;69.40;;;;;;4990987;28;20558;-91
2022/04/16 09:51:48;;;;;;;6.32;1.90;;;13.60;68.50;;;;;;4990798;28;20030;-91
2022/04/16 09:54:15;;;;;;;5.65;1.67;;;13.70;68.90;;;;;;5007639;28;20089;-91
2022/04/16 09:56:46;;;;;;;3.78;1.30;;;13.80;68.80;;;;;;5007527;28;20385;-91
2022/04/16 09:59:13;;;;;;;5.03;1.63;;;13.80;68.00;;;;;;4974082;28;20089;-90
2022/04/16 10:01:47;;;;;;;4.22;1.60;;;13.90;68.10;;;;;;4990004;28;20046;-91
2022/04/16 10:04:20;;;;;;;5.38;1.35;;;14.00;66.60;;;;;;4980983;28;20038;-91
2022/04/16 10:06:47;;;;;;;4.30;1.30;;;14.00;64.80;;;;;;4991176;28;20080;-91
2022/04/16 10:09:22;;;;;;;3.78;1.00;;;14.00;62.70;;;;;;4974656;28;20035;-92
2022/04/16 10:15:26;;;;;;;5.05;1.40;;;14.20;61.90;;;;;;5000180;28;20089;-91
2022/04/16 10:17:52;;;;;;;4.75;1.55;;;14.30;61.70;;;;;;4986064;28;20136;-91
2022/04/16 10:20:23;;;;;;;3.97;1.27;;;14.40;62.40;;;;;;4995937;28;20069;-91
2022/04/16 10:23:07;;;;;;;4.55;1.35;;;14.50;60.40;;;;;;4995565;28;20113;-91
2022/04/16 10:25:44;;;;;;;4.45;1.50;;;14.60;61.70;;;;;;4995479;28;20046;-91
2022/04/16 10:28:16;;;;;;;4.82;1.40;;;14.60;61.40;;;;;;4994835;28;20065;-91
2022/04/16 10:30:49;;;;;;;6.40;1.23;;;14.70;61.70;;;;;;4994261;28;20133;-90
2022/04/16 10:33:21;;;;;;;4.00;1.10;;;14.90;61.00;;;;;;4993677;28;20038;-91
2022/04/16 10:36:01;;;;;;;3.28;0.90;;;15.00;56.80;;;;;;4994569;28;20504;-90
2022/04/16 10:38:37;;;;;;;3.38;1.00;;;15.00;53.60;;;;;;4977449;28;20046;-90
2022/04/16 10:41:24;;;;;;;5.50;1.48;;;15.00;54.90;;;;;;4973576;28;20095;-90
2022/04/16 10:44:01;;;;;;;5.72;1.40;;;15.10;56.70;;;;;;4993862;28;20455;-91
2022/04/16 10:46:42;;;;;;;5.40;1.40;;;15.30;56.90;;;;;;4994018;28;20042;-91
2022/04/16 10:49:09;;;;;;;4.90;1.27;;;15.40;57.50;;;;;;4996468;28;20495;-90
2022/04/16 10:51:35;;;;;;;3.88;1.23;;;15.50;57.70;;;;;;5024305;28;20061;-91
2022/04/16 10:54:09;;;;;;;4.00;1.42;;;15.60;57.30;;;;;;4980916;28;20046;-91
2022/04/16 10:56:39;;;;;;;2.63;1.00;;;15.70;56.50;;;;;;4966147;28;20030;-91
2022/04/16 10:59:07;;;;;;;3.88;1.20;;;15.80;55.30;;;;;;4974222;28;20070;-91
2022/04/16 11:01:33;;;;;;;4.97;1.60;;;15.80;52.20;;;;;;4993018;28;20050;-91
2022/04/16 11:03:58;;;;;;;4.03;1.50;;;15.80;52.80;;;;;;4993238;28;20030;-91
2022/04/16 11:06:34;;;;;;;4.05;1.20;;;15.90;53.80;;;;;;4977580;28;20049;-91
2022/04/16 11:09:00;;;;;;;7.38;2.42;;;15.90;53.20;;;;;;4993760;28;20409;-91
2022/04/16 11:11:26;;;;;;;4.68;1.17;;;16.00;52.60;;;;;;4992988;28;20571;-91
2022/04/16 11:13:51;;;;;;;3.25;1.30;;;16.10;52.90;;;;;;4993139;28;20046;-91
2022/04/16 11:16:22;;;;;;;5.43;1.80;;;16.20;52.50;;;;;;4993668;28;20053;-91
2022/04/16 11:18:48;;;;;;;1.95;1.00;;;16.10;51.10;;;;;;4976874;28;20066;-91
2022/04/16 11:21:21;;;;;;;3.97;1.20;;;16.30;51.70;;;;;;4993145;28;20042;-92
2022/04/16 11:23:54;;;;;;;3.40;1.00;;;16.40;51.90;;;;;;4993181;28;20041;-91
2022/04/16 11:34:42;;;;;;;3.45;1.08;;;16.70;50.90;;;;;;4992512;28;20042;-91
2022/04/16 11:37:08;;;;;;;3.92;1.30;;;16.80;50.80;;;;;;4992782;28;20049;-91
2022/04/16 11:39:34;;;;;;;3.95;1.30;;;17.00;51.10;;;;;;4993004;28;20053;-91
2022/04/16 11:42:05;;;;;;;5.32;1.27;;;17.10;49.70;;;;;;4992587;28;20045;-91
2022/04/16 11:44:40;;;;;;;2.53;1.10;;;17.20;49.30;;;;;;4976584;28;20504;-91
2022/04/16 11:47:06;;;;;;;4.60;1.23;;;17.30;48.60;;;;;;4993109;28;20039;-91
2022/04/16 11:49:33;;;;;;;6.15;2.35;;;17.30;48.10;;;;;;4976608;28;20042;-91
2022/04/16 11:51:59;;;;;;;6.35;1.80;;;17.50;48.60;;;;;;4992492;28;20034;-91
2022/04/16 11:54:29;;;;;;;4.43;1.30;;;17.50;48.70;;;;;;4975693;28;20097;-91
2022/04/16 11:56:55;;;;;;;4.60;1.08;;;17.60;48.70;;;;;;4974552;28;20041;-91
2022/04/16 11:59:25;;;;;;;3.88;1.30;;;17.70;47.10;;;;;;4976080;28;20042;-91
2022/04/16 12:02:06;;;;;;;3.55;1.23;;;17.80;47.50;;;;;;4975930;28;20646;-91
2022/04/16 12:04:41;;;;;;;3.22;1.08;;;17.80;46.60;;;;;;4994545;28;20117;-91
2022/04/16 12:07:16;;;;;;;4.60;1.13;;;18.10;45.30;;;;;;4990623;28;20035;-91
2022/04/16 12:09:49;;;;;;;5.60;2.15;;;18.10;45.30;;;;;;4992180;28;20039;-91
2022/04/16 12:12:22;;;;;;;3.53;1.10;;;18.20;46.00;;;;;;4979670;28;20487;-92
2022/04/16 12:14:49;;;;;;;2.75;1.00;;;18.30;44.50;;;;;;4987609;28;20038;-91
2022/04/16 12:17:26;;;;;;;2.63;1.00;;;18.30;43.60;;;;;;4975523;28;20042;-91
2022/04/16 12:20:08;;;;;;;2.95;1.10;;;18.40;42.90;;;;;;5018586;28;20517;-92
2022/04/16 12:22:48;;;;;;;2.63;1.00;;;18.50;42.90;;;;;;4991228;28;20039;-92
2022/04/16 12:25:19;;;;;;;4.50;1.27;;;18.70;43.70;;;;;;4991795;28;20034;-91
2022/04/16 12:27:57;;;;;;;4.05;1.10;;;18.80;44.00;;;;;;4991390;28;20415;-91
2022/04/16 12:30:25;;;;;;;4.28;1.30;;;19.10;44.40;;;;;;4991490;28;20050;-91
2022/04/16 12:33:10;;;;;;;3.55;1.15;;;19.20;43.40;;;;;;4975784;28;20042;-91
2022/04/16 12:35:37;;;;;;;4.53;1.30;;;19.20;42.60;;;;;;4992117;28;20042;-91
2022/04/16 12:38:04;;;;;;;5.43;1.60;;;19.40;42.00;;;;;;4991561;28;20105;-91
2022/04/16 12:40:31;;;;;;;3.92;1.20;;;19.50;41.80;;;;;;4974671;28;20097;-92
2022/04/16 12:42:58;;;;;;;4.30;1.30;;;19.50;41.70;;;;;;4991826;28;20503;-91
2022/04/16 12:45:25;;;;;;;4.15;1.20;;;19.60;41.30;;;;;;4975645;28;20038;-91
2022/04/16 12:47:51;;;;;;;2.17;0.93;;;19.80;40.20;;;;;;4991761;28;20038;-91
2022/04/16 12:50:17;;;;;;;3.78;1.10;;;19.90;40.40;;;;;;4975312;28;20046;-91
2022/04/16 12:52:44;;;;;;;4.13;1.30;;;20.10;40.30;;;;;;4994017;28;20045;-91
2022/04/16 12:55:10;;;;;;;5.25;1.30;;;20.20;39.70;;;;;;4991829;28;20044;-91
2022/04/16 12:57:36;;;;;;;2.55;1.10;;;20.40;40.70;;;;;;4974308;28;20038;-91
2022/04/16 13:00:05;;;;;;;4.53;1.38;;;20.50;41.30;;;;;;4972894;28;20121;-91
2022/04/16 13:02:30;;;;;;;4.10;1.13;;;20.60;41.20;;;;;;4972809;28;20408;-91
2022/04/16 13:04:56;;;;;;;3.65;1.20;;;20.60;40.40;;;;;;4973574;28;20034;-91
2022/04/16 13:07:22;;;;;;;4.20;1.30;;;20.80;38.60;;;;;;4973500;28;20042;-91
2022/04/16 13:09:48;;;;;;;3.78;1.20;;;20.80;39.00;;;;;;4989613;28;20053;-91